sensor_id;sensor_type;location;lat;lon;timestamp;pressure;altitude;pressure_sealevel;temperature;humidity
35647;BME280;28680;45.642;13.756;2023-05-28T00:01:01;101288.13;;;22.55;100.00
35647;BME280;28680;45.642;13.756;2023-05-28T00:03:29;101281.38;;;22.60;100.00
35647;BME280;28680;45.642;13.756;2023-05-28T00:05:58;101274.53;;;22.57;100.00
35647;BME280;28680;45.642;13.756;2023-05-28T00:08:24;101279.72;;;22.58;100.00
35647;BME280;28680;45.642;13.756;2023-05-28T00:10:51;101268.00;;;23.11;100.00
35647;BME280;28680;45.642;13.756;2023-05-28T00:13:17;101264.66;;;22.87;100.00
35647;BME280;28680;45.642;13.756;2023-05-28T00:15:44;101267.88;;;22.68;100.00
35647;BME280;28680;45.642;13.756;2023-05-28T00:18:10;101264.22;;;22.54;100.00
35647;BME280;28680;45.642;13.756;2023-05-28T00:20:38;101259.44;;;22.49;100.00
35647;BME280;28680;45.642;13.756;2023-05-28T00:23:04;101260.81;;;22.45;100.00
35647;BME280;28680;45.642;13.756;2023-05-28T00:25:30;101258.53;;;22.42;100.00
35647;BME280;28680;45.642;13.756;2023-05-28T00:27:55;101252.63;;;22.32;100.00
35647;BME280;28680;45.642;13.756;2023-05-28T00:30:21;101254.81;;;22.43;100.00
35647;BME280;28680;45.642;13.756;2023-05-28T00:32:49;101260.09;;;22.36;100.00
35647;BME280;28680;45.642;13.756;2023-05-28T00:35:15;101259.44;;;22.19;100.00
35647;BME280;28680;45.642;13.756;2023-05-28T00:37:41;101265.78;;;22.18;100.00
35647;BME280;28680;45.642;13.756;2023-05-28T00:40:07;101257.94;;;22.17;100.00
35647;BME280;28680;45.642;13.756;2023-05-28T00:42:34;101261.00;;;22.44;100.00
35647;BME280;28680;45.642;13.756;2023-05-28T00:44:59;101250.59;;;22.34;100.00
35647;BME280;28680;45.642;13.756;2023-05-28T00:47:26;101250.50;;;22.27;100.00
35647;BME280;28680;45.642;13.756;2023-05-28T00:49:52;101241.06;;;22.76;100.00
35647;BME280;28680;45.642;13.756;2023-05-28T00:52:20;101242.88;;;22.75;100.00
35647;BME280;28680;45.642;13.756;2023-05-28T00:54:48;101244.06;;;22.51;100.00
35647;BME280;28680;45.642;13.756;2023-05-28T00:57:15;101240.34;;;22.37;100.00
35647;BME280;28680;45.642;13.756;2023-05-28T00:59:41;101240.94;;;22.33;100.00
35647;BME280;28680;45.642;13.756;2023-05-28T01:02:08;101246.13;;;22.11;100.00
35647;BME280;28680;45.642;13.756;2023-05-28T01:04:34;101235.53;;;22.18;100.00
35647;BME280;28680;45.642;13.756;2023-05-28T01:07:01;101234.72;;;22.17;100.00
35647;BME280;28680;45.642;13.756;2023-05-28T01:09:27;101233.88;;;22.02;100.00
35647;BME280;28680;45.642;13.756;2023-05-28T01:11:54;101236.00;;;21.92;100.00
35647;BME280;28680;45.642;13.756;2023-05-28T01:14:20;101220.25;;;22.12;100.00
35647;BME280;28680;45.642;13.756;2023-05-28T01:16:47;101222.06;;;22.11;100.00
35647;BME280;28680;45.642;13.756;2023-05-28T01:19:20;101224.75;;;21.96;100.00
35647;BME280;28680;45.642;13.756;2023-05-28T01:21:55;101230.09;;;21.82;100.00
35647;BME280;28680;45.642;13.756;2023-05-28T01:24:22;101234.50;;;21.74;100.00
35647;BME280;28680;45.642;13.756;2023-05-28T01:26:49;101238.84;;;21.90;100.00
35647;BME280;28680;45.642;13.756;2023-05-28T01:29:17;101222.06;;;21.67;100.00
35647;BME280;28680;45.642;13.756;2023-05-28T01:31:43;101225.41;;;21.84;100.00
35647;BME280;28680;45.642;13.756;2023-05-28T01:34:10;101217.66;;;22.04;100.00
35647;BME280;28680;45.642;13.756;2023-05-28T01:36:46;101212.13;;;21.90;100.00
35647;BME280;28680;45.642;13.756;2023-05-28T01:39:15;101211.38;;;21.96;100.00
35647;BME280;28680;45.642;13.756;2023-05-28T01:41:45;101217.47;;;22.20;100.00
35647;BME280;28680;45.642;13.756;2023-05-28T01:44:14;101211.47;;;21.88;100.00
35647;BME280;28680;45.642;13.756;2023-05-28T01:46:42;101207.41;;;21.63;100.00
35647;BME280;28680;45.642;13.756;2023-05-28T01:49:09;101197.06;;;21.59;100.00
35647;BME280;28680;45.642;13.756;2023-05-28T01:51:36;101201.38;;;21.60;100.00
35647;BME280;28680;45.642;13.756;2023-05-28T01:54:02;101199.00;;;21.66;100.00
35647;BME280;28680;45.642;13.756;2023-05-28T01:56:28;101200.47;;;21.53;100.00
35647;BME280;28680;45.642;13.756;2023-05-28T01:58:54;101196.47;;;21.49;100.00
35647;BME280;28680;45.642;13.756;2023-05-28T02:01:31;101187.66;;;21.49;100.00
35647;BME280;28680;45.642;13.756;2023-05-28T02:03:59;101185.66;;;21.66;100.00
35647;BME280;28680;45.642;13.756;2023-05-28T02:06:34;101194.41;;;21.59;100.00
35647;BME280;28680;45.642;13.756;2023-05-28T02:09:00;101188.16;;;21.67;100.00
35647;BME280;28680;45.642;13.756;2023-05-28T02:11:26;101177.34;;;21.46;100.00
35647;BME280;28680;45.642;13.756;2023-05-28T02:13:52;101183.34;;;21.48;100.00
35647;BME280;28680;45.642;13.756;2023-05-28T02:16:18;101177.53;;;21.44;100.00
35647;BME280;28680;45.642;13.756;2023-05-28T02:18:44;101172.19;;;21.44;100.00
35647;BME280;28680;45.642;13.756;2023-05-28T02:21:12;101181.69;;;21.23;100.00
35647;BME280;28680;45.642;13.756;2023-05-28T02:23:48;101176.16;;;21.25;100.00
35647;BME280;28680;45.642;13.756;2023-05-28T02:26:15;101174.97;;;21.28;100.00
35647;BME280;28680;45.642;13.756;2023-05-28T02:28:41;101179.06;;;21.38;100.00
35647;BME280;28680;45.642;13.756;2023-05-28T02:31:11;101169.66;;;21.42;100.00
35647;BME280;28680;45.642;13.756;2023-05-28T02:33:41;101174.84;;;21.44;100.00
35647;BME280;28680;45.642;13.756;2023-05-28T02:36:09;101175.50;;;21.46;100.00
35647;BME280;28680;45.642;13.756;2023-05-28T02:38:39;101172.19;;;21.44;100.00
35647;BME280;28680;45.642;13.756;2023-05-28T02:41:05;101175.00;;;21.42;100.00
35647;BME280;28680;45.642;13.756;2023-05-28T02:43:31;101169.53;;;21.44;100.00
35647;BME280;28680;45.642;13.756;2023-05-28T02:45:57;101160.47;;;21.45;100.00
35647;BME280;28680;45.642;13.756;2023-05-28T02:48:23;101163.09;;;21.30;100.00
35647;BME280;28680;45.642;13.756;2023-05-28T02:50:49;101152.22;;;21.32;100.00
35647;BME280;28680;45.642;13.756;2023-05-28T02:53:20;101160.63;;;21.29;100.00
35647;BME280;28680;45.642;13.756;2023-05-28T02:55:47;101155.53;;;21.34;100.00
35647;BME280;28680;45.642;13.756;2023-05-28T02:58:13;101159.97;;;21.41;100.00
35647;BME280;28680;45.642;13.756;2023-05-28T03:00:40;101161.13;;;21.24;100.00
35647;BME280;28680;45.642;13.756;2023-05-28T03:03:06;101157.81;;;21.22;100.00
35647;BME280;28680;45.642;13.756;2023-05-28T03:05:32;101164.09;;;21.29;100.00
35647;BME280;28680;45.642;13.756;2023-05-28T03:07:59;101152.19;;;21.55;100.00
35647;BME280;28680;45.642;13.756;2023-05-28T03:10:25;101158.22;;;21.34;100.00
35647;BME280;28680;45.642;13.756;2023-05-28T03:12:50;101150.13;;;21.27;100.00
35647;BME280;28680;45.642;13.756;2023-05-28T03:15:17;101140.97;;;21.45;100.00
35647;BME280;28680;45.642;13.756;2023-05-28T03:17:43;101143.66;;;21.74;100.00
35647;BME280;28680;45.642;13.756;2023-05-28T03:20:10;101140.44;;;22.09;100.00
35647;BME280;28680;45.642;13.756;2023-05-28T03:22:40;101143.44;;;22.20;99.40
35647;BME280;28680;45.642;13.756;2023-05-28T03:25:07;101137.63;;;22.17;95.74
35647;BME280;28680;45.642;13.756;2023-05-28T03:27:35;101124.22;;;22.25;100.00
35647;BME280;28680;45.642;13.756;2023-05-28T03:30:01;101130.63;;;22.46;98.05
35647;BME280;28680;45.642;13.756;2023-05-28T03:32:29;101122.25;;;22.19;93.26
35647;BME280;28680;45.642;13.756;2023-05-28T03:34:55;101126.31;;;22.30;94.25
35647;BME280;28680;45.642;13.756;2023-05-28T03:37:21;101115.88;;;22.35;92.21
35647;BME280;28680;45.642;13.756;2023-05-28T03:39:47;101114.44;;;22.54;98.04
35647;BME280;28680;45.642;13.756;2023-05-28T03:42:13;101111.97;;;22.52;93.04
35647;BME280;28680;45.642;13.756;2023-05-28T03:44:38;101111.97;;;22.52;94.29
35647;BME280;28680;45.642;13.756;2023-05-28T03:47:05;101116.84;;;22.27;92.93
35647;BME280;28680;45.642;13.756;2023-05-28T03:49:30;101124.56;;;22.37;98.44
35647;BME280;28680;45.642;13.756;2023-05-28T03:51:57;101123.28;;;22.18;94.97
35647;BME280;28680;45.642;13.756;2023-05-28T03:54:23;101123.53;;;22.23;99.83
35647;BME280;28680;45.642;13.756;2023-05-28T03:56:48;101130.22;;;21.83;97.66
35647;BME280;28680;45.642;13.756;2023-05-28T03:59:14;101132.88;;;21.97;96.38
35647;BME280;28680;45.642;13.756;2023-05-28T04:01:40;101135.38;;;21.84;97.13
35647;BME280;28680;45.642;13.756;2023-05-28T04:04:06;101132.59;;;22.07;100.00
35647;BME280;28680;45.642;13.756;2023-05-28T04:06:32;101138.03;;;22.14;96.53
35647;BME280;28680;45.642;13.756;2023-05-28T04:08:58;101145.06;;;21.70;97.75
35647;BME280;28680;45.642;13.756;2023-05-28T04:11:24;101136.19;;;21.55;100.00
35647;BME280;28680;45.642;13.756;2023-05-28T04:13:53;101140.38;;;21.34;100.00
35647;BME280;28680;45.642;13.756;2023-05-28T04:16:20;101138.13;;;21.46;100.00
35647;BME280;28680;45.642;13.756;2023-05-28T04:18:49;101143.78;;;21.43;100.00
35647;BME280;28680;45.642;13.756;2023-05-28T04:21:15;101144.19;;;21.55;100.00
35647;BME280;28680;45.642;13.756;2023-05-28T04:23:41;101142.72;;;21.52;99.79
35647;BME280;28680;45.642;13.756;2023-05-28T04:26:06;101144.38;;;21.83;99.57
35647;BME280;28680;45.642;13.756;2023-05-28T04:28:33;101150.22;;;21.57;97.12
35647;BME280;28680;45.642;13.756;2023-05-28T04:31:00;101144.59;;;21.67;94.86
35647;BME280;28680;45.642;13.756;2023-05-28T04:33:27;101146.41;;;21.96;94.36
35647;BME280;28680;45.642;13.756;2023-05-28T04:35:55;101149.84;;;22.05;93.47
35647;BME280;28680;45.642;13.756;2023-05-28T04:38:26;101165.13;;;21.81;94.04
35647;BME280;28680;45.642;13.756;2023-05-28T04:40:55;101162.56;;;21.73;94.21
35647;BME280;28680;45.642;13.756;2023-05-28T04:43:21;101165.66;;;21.61;96.33
35647;BME280;28680;45.642;13.756;2023-05-28T04:45:47;101166.69;;;21.37;98.35
35647;BME280;28680;45.642;13.756;2023-05-28T04:48:13;101171.81;;;21.47;97.35
35647;BME280;28680;45.642;13.756;2023-05-28T04:50:39;101161.34;;;21.37;98.09
35647;BME280;28680;45.642;13.756;2023-05-28T04:53:06;101166.88;;;21.36;97.93
35647;BME280;28680;45.642;13.756;2023-05-28T04:55:31;101164.28;;;21.28;97.77
35647;BME280;28680;45.642;13.756;2023-05-28T04:57:57;101165.00;;;21.45;98.21
35647;BME280;28680;45.642;13.756;2023-05-28T05:00:23;101168.16;;;21.25;99.71
35647;BME280;28680;45.642;13.756;2023-05-28T05:02:52;101168.53;;;21.37;97.77
35647;BME280;28680;45.642;13.756;2023-05-28T05:05:19;101168.31;;;21.47;97.93
35647;BME280;28680;45.642;13.756;2023-05-28T05:07:46;101174.97;;;21.28;98.81
35647;BME280;28680;45.642;13.756;2023-05-28T05:10:12;101176.56;;;21.37;98.54
35647;BME280;28680;45.642;13.756;2023-05-28T05:12:39;101170.56;;;21.35;99.87
35647;BME280;28680;45.642;13.756;2023-05-28T05:15:07;101172.22;;;21.59;98.89
35647;BME280;28680;45.642;13.756;2023-05-28T05:17:33;101165.78;;;21.68;97.04
35647;BME280;28680;45.642;13.756;2023-05-28T05:20:03;101170.72;;;21.56;98.76
35647;BME280;28680;45.642;13.756;2023-05-28T05:22:31;101177.91;;;21.56;98.61
35647;BME280;28680;45.642;13.756;2023-05-28T05:24:57;101171.75;;;21.55;100.00
35647;BME280;28680;45.642;13.756;2023-05-28T05:27:23;101173.22;;;21.58;99.72
35647;BME280;28680;45.642;13.756;2023-05-28T05:29:48;101175.34;;;21.63;100.00
35647;BME280;28680;45.642;13.756;2023-05-28T05:32:14;101171.66;;;21.64;100.00
35647;BME280;28680;45.642;13.756;2023-05-28T05:34:40;101171.84;;;21.62;100.00
35647;BME280;28680;45.642;13.756;2023-05-28T05:37:06;101182.00;;;21.67;100.00
35647;BME280;28680;45.642;13.756;2023-05-28T05:39:32;101169.81;;;21.79;99.98
35647;BME280;28680;45.642;13.756;2023-05-28T05:41:58;101171.31;;;21.82;100.00
35647;BME280;28680;45.642;13.756;2023-05-28T05:44:25;101171.00;;;22.21;100.00
35647;BME280;28680;45.642;13.756;2023-05-28T05:46:51;101179.53;;;22.10;97.97
35647;BME280;28680;45.642;13.756;2023-05-28T05:49:17;101168.06;;;22.16;99.11
35647;BME280;28680;45.642;13.756;2023-05-28T05:51:43;101176.63;;;21.96;100.00
35647;BME280;28680;45.642;13.756;2023-05-28T05:54:08;101175.63;;;22.12;100.00
35647;BME280;28680;45.642;13.756;2023-05-28T05:56:34;101172.84;;;22.06;100.00
35647;BME280;28680;45.642;13.756;2023-05-28T05:59:00;101176.56;;;22.19;100.00
35647;BME280;28680;45.642;13.756;2023-05-28T06:01:26;101169.06;;;22.45;100.00
35647;BME280;28680;45.642;13.756;2023-05-28T06:03:52;101172.91;;;22.57;100.00
35647;BME280;28680;45.642;13.756;2023-05-28T06:06:18;101174.84;;;22.63;97.94
35647;BME280;28680;45.642;13.756;2023-05-28T06:08:44;101167.00;;;22.62;99.59
35647;BME280;28680;45.642;13.756;2023-05-28T06:11:10;101166.38;;;22.81;97.87
35647;BME280;28680;45.642;13.756;2023-05-28T06:13:36;101173.94;;;22.56;97.83
35647;BME280;28680;45.642;13.756;2023-05-28T06:16:03;101167.63;;;22.64;99.29
35647;BME280;28680;45.642;13.756;2023-05-28T06:18:30;101162.56;;;22.90;100.00
35647;BME280;28680;45.642;13.756;2023-05-28T06:20:56;101158.16;;;22.83;99.99
35647;BME280;28680;45.642;13.756;2023-05-28T06:23:22;101154.56;;;22.75;100.00
35647;BME280;28680;45.642;13.756;2023-05-28T06:25:48;101153.28;;;22.93;100.00
35647;BME280;28680;45.642;13.756;2023-05-28T06:28:14;101155.47;;;22.83;100.00
35647;BME280;28680;45.642;13.756;2023-05-28T06:30:40;101150.59;;;23.08;100.00
35647;BME280;28680;45.642;13.756;2023-05-28T06:33:06;101156.00;;;23.14;100.00
35647;BME280;28680;45.642;13.756;2023-05-28T06:35:33;101160.22;;;23.24;100.00
35647;BME280;28680;45.642;13.756;2023-05-28T06:37:59;101162.25;;;23.22;100.00
35647;BME280;28680;45.642;13.756;2023-05-28T06:40:25;101151.72;;;23.20;100.00
35647;BME280;28680;45.642;13.756;2023-05-28T06:42:51;101153.81;;;23.25;100.00
35647;BME280;28680;45.642;13.756;2023-05-28T06:45:17;101146.75;;;23.45;100.00
35647;BME280;28680;45.642;13.756;2023-05-28T06:47:47;101152.19;;;23.52;100.00
35647;BME280;28680;45.642;13.756;2023-05-28T06:50:13;101142.09;;;23.54;100.00
35647;BME280;28680;45.642;13.756;2023-05-28T06:52:39;101151.94;;;23.47;100.00
35647;BME280;28680;45.642;13.756;2023-05-28T06:55:06;101152.03;;;23.60;100.00
35647;BME280;28680;45.642;13.756;2023-05-28T06:57:34;101147.53;;;23.67;100.00
35647;BME280;28680;45.642;13.756;2023-05-28T07:00:04;101150.75;;;23.84;100.00
35647;BME280;28680;45.642;13.756;2023-05-28T07:02:35;101152.44;;;23.92;100.00
35647;BME280;28680;45.642;13.756;2023-05-28T07:05:01;101144.41;;;23.92;100.00
35647;BME280;28680;45.642;13.756;2023-05-28T07:07:33;101151.56;;;23.85;99.96
35647;BME280;28680;45.642;13.756;2023-05-28T07:09:59;101155.50;;;23.89;100.00
35647;BME280;28680;45.642;13.756;2023-05-28T07:12:25;101147.34;;;24.04;100.00
35647;BME280;28680;45.642;13.756;2023-05-28T07:14:51;101156.25;;;24.11;99.83
35647;BME280;28680;45.642;13.756;2023-05-28T07:17:16;101150.94;;;24.24;97.92
35647;BME280;28680;45.642;13.756;2023-05-28T07:19:42;101143.75;;;24.31;100.00
35647;BME280;28680;45.642;13.756;2023-05-28T07:22:08;101139.41;;;24.30;98.04
35647;BME280;28680;45.642;13.756;2023-05-28T07:24:35;101135.75;;;24.45;95.46
35647;BME280;28680;45.642;13.756;2023-05-28T07:27:01;101136.00;;;24.57;98.03
35647;BME280;28680;45.642;13.756;2023-05-28T07:29:28;101130.44;;;24.65;99.79
35647;BME280;28680;45.642;13.756;2023-05-28T07:31:54;101130.25;;;24.73;99.69
35647;BME280;28680;45.642;13.756;2023-05-28T07:34:20;101134.19;;;24.77;95.41
35647;BME280;28680;45.642;13.756;2023-05-28T07:36:46;101129.22;;;24.87;94.14
35647;BME280;28680;45.642;13.756;2023-05-28T07:39:12;101121.81;;;25.03;100.00
35647;BME280;28680;45.642;13.756;2023-05-28T07:41:39;101128.00;;;25.03;100.00
35647;BME280;28680;45.642;13.756;2023-05-28T07:44:04;101121.81;;;25.03;97.41
35647;BME280;28680;45.642;13.756;2023-05-28T07:46:32;101115.41;;;25.17;100.00
35647;BME280;28680;45.642;13.756;2023-05-28T07:48:58;101119.50;;;25.20;97.73
35647;BME280;28680;45.642;13.756;2023-05-28T07:51:24;101122.84;;;25.22;92.84
35647;BME280;28680;45.642;13.756;2023-05-28T07:53:52;101119.16;;;25.29;97.28
35647;BME280;28680;45.642;13.756;2023-05-28T07:56:18;101109.19;;;25.37;100.00
35647;BME280;28680;45.642;13.756;2023-05-28T07:58:44;101109.84;;;25.39;98.88
35647;BME280;28680;45.642;13.756;2023-05-28T08:01:11;101110.22;;;25.42;100.00
35647;BME280;28680;45.642;13.756;2023-05-28T08:03:36;101106.50;;;25.50;100.00
35647;BME280;28680;45.642;13.756;2023-05-28T08:06:03;101108.19;;;25.44;91.99
35647;BME280;28680;45.642;13.756;2023-05-28T08:08:30;101105.88;;;25.55;96.94
35647;BME280;28680;45.642;13.756;2023-05-28T08:10:56;101098.19;;;25.65;100.00
35647;BME280;28680;45.642;13.756;2023-05-28T08:13:21;101099.44;;;25.69;100.00
35647;BME280;28680;45.642;13.756;2023-05-28T08:15:48;101100.88;;;25.72;100.00
35647;BME280;28680;45.642;13.756;2023-05-28T08:18:14;101098.59;;;25.75;100.00
35647;BME280;28680;45.642;13.756;2023-05-28T08:20:40;101093.81;;;25.77;100.00
35647;BME280;28680;45.642;13.756;2023-05-28T08:23:06;101095.22;;;25.86;99.93
35647;BME280;28680;45.642;13.756;2023-05-28T08:25:33;101089.22;;;25.98;98.80
35647;BME280;28680;45.642;13.756;2023-05-28T08:27:59;101095.81;;;26.02;98.14
35647;BME280;28680;45.642;13.756;2023-05-28T08:30:25;101087.28;;;26.12;86.41
35647;BME280;28680;45.642;13.756;2023-05-28T08:32:51;101085.59;;;26.17;87.88
35647;BME280;28680;45.642;13.756;2023-05-28T08:35:17;101080.81;;;26.26;81.42
35647;BME280;28680;45.642;13.756;2023-05-28T08:37:43;101080.19;;;26.24;88.84
35647;BME280;28680;45.642;13.756;2023-05-28T08:40:09;101083.41;;;26.39;83.41
35647;BME280;28680;45.642;13.756;2023-05-28T08:42:36;101082.81;;;26.37;92.23
35647;BME280;28680;45.642;13.756;2023-05-28T08:45:03;101080.94;;;26.38;94.54
35647;BME280;28680;45.642;13.756;2023-05-28T08:47:33;101078.94;;;26.58;81.05
35647;BME280;28680;45.642;13.756;2023-05-28T08:50:06;101065.09;;;26.55;89.02
35647;BME280;28680;45.642;13.756;2023-05-28T08:52:33;101066.50;;;26.57;93.49
35647;BME280;28680;45.642;13.756;2023-05-28T08:55:00;101068.28;;;26.77;78.38
35647;BME280;28680;45.642;13.756;2023-05-28T08:57:29;101062.09;;;26.95;77.34
35647;BME280;28680;45.642;13.756;2023-05-28T08:59:58;101056.91;;;26.93;80.97
35647;BME280;28680;45.642;13.756;2023-05-28T09:02:26;101051.56;;;27.12;77.74
35647;BME280;28680;45.642;13.756;2023-05-28T09:04:52;101056.66;;;27.20;79.41
35647;BME280;28680;45.642;13.756;2023-05-28T09:07:19;101045.13;;;27.56;72.92
35647;BME280;28680;45.642;13.756;2023-05-28T09:09:45;101047.97;;;27.43;80.43
35647;BME280;28680;45.642;13.756;2023-05-28T09:12:12;101055.88;;;27.75;69.75
35647;BME280;28680;45.642;13.756;2023-05-28T09:14:41;101049.88;;;27.73;71.95
35647;BME280;28680;45.642;13.756;2023-05-28T09:17:11;101045.59;;;27.84;70.89
35647;BME280;28680;45.642;13.756;2023-05-28T09:19:39;101041.03;;;28.03;68.07
35647;BME280;28680;45.642;13.756;2023-05-28T09:22:05;101034.13;;;27.88;73.33
35647;BME280;28680;45.642;13.756;2023-05-28T09:24:32;101031.53;;;27.81;84.41
35647;BME280;28680;45.642;13.756;2023-05-28T09:26:58;101031.41;;;27.88;76.90
35647;BME280;28680;45.642;13.756;2023-05-28T09:29:25;101031.91;;;27.85;84.23
35647;BME280;28680;45.642;13.756;2023-05-28T09:31:59;101033.94;;;27.90;80.67
35647;BME280;28680;45.642;13.756;2023-05-28T09:34:29;101034.38;;;27.87;84.09
35647;BME280;28680;45.642;13.756;2023-05-28T09:37:04;101026.81;;;27.95;79.77
35647;BME280;28680;45.642;13.756;2023-05-28T09:39:31;101028.03;;;28.11;76.46
35647;BME280;28680;45.642;13.756;2023-05-28T09:42:05;101029.41;;;28.02;88.75
35647;BME280;28680;45.642;13.756;2023-05-28T09:44:39;101023.22;;;28.55;66.91
35647;BME280;28680;45.642;13.756;2023-05-28T09:47:19;101031.28;;;28.32;81.13
35647;BME280;28680;45.642;13.756;2023-05-28T09:49:48;101022.69;;;28.23;82.35
35647;BME280;28680;45.642;13.756;2023-05-28T09:52:20;101019.63;;;28.31;80.10
35647;BME280;28680;45.642;13.756;2023-05-28T09:54:52;101015.31;;;28.42;77.74
35647;BME280;28680;45.642;13.756;2023-05-28T09:57:29;101010.75;;;28.43;80.86
35647;BME280;28680;45.642;13.756;2023-05-28T09:59:56;101022.91;;;29.23;65.42
35647;BME280;28680;45.642;13.756;2023-05-28T10:02:46;101025.34;;;28.77;78.16
35647;BME280;28680;45.642;13.756;2023-05-28T10:05:16;101018.69;;;28.68;77.61
35647;BME280;28680;45.642;13.756;2023-05-28T10:07:47;101019.59;;;29.09;66.34
35647;BME280;28680;45.642;13.756;2023-05-28T10:10:14;101017.13;;;29.31;65.56
35647;BME280;28680;45.642;13.756;2023-05-28T10:12:41;101013.75;;;29.64;64.47
35647;BME280;28680;45.642;13.756;2023-05-28T10:15:08;101014.91;;;29.28;73.10
35647;BME280;28680;45.642;13.756;2023-05-28T10:17:35;101007.63;;;29.16;73.91
35647;BME280;28680;45.642;13.756;2023-05-28T10:20:01;101009.97;;;29.13;69.18
35647;BME280;28680;45.642;13.756;2023-05-28T10:22:30;101008.56;;;29.34;70.21
35647;BME280;28680;45.642;13.756;2023-05-28T10:24:59;101002.69;;;29.25;71.79
35647;BME280;28680;45.642;13.756;2023-05-28T10:27:30;100998.56;;;29.11;71.62
35647;BME280;28680;45.642;13.756;2023-05-28T10:30:03;100994.41;;;30.47;55.81
35647;BME280;28680;45.642;13.756;2023-05-28T10:32:29;100989.31;;;30.67;54.43
35647;BME280;28680;45.642;13.756;2023-05-28T10:35:01;100989.03;;;31.03;52.70
35647;BME280;28680;45.642;13.756;2023-05-28T10:37:28;100987.84;;;30.43;62.25
35647;BME280;28680;45.642;13.756;2023-05-28T10:39:54;100981.75;;;30.19;63.87
35647;BME280;28680;45.642;13.756;2023-05-28T10:42:20;100984.91;;;30.44;59.33
35647;BME280;28680;45.642;13.756;2023-05-28T10:45:06;100986.53;;;31.40;50.98
35647;BME280;28680;45.642;13.756;2023-05-28T10:47:33;100981.50;;;30.71;59.67
35647;BME280;28680;45.642;13.756;2023-05-28T10:50:26;100987.06;;;30.81;57.79
35647;BME280;28680;45.642;13.756;2023-05-28T10:53:08;100984.00;;;30.56;63.39
35647;BME280;28680;45.642;13.756;2023-05-28T10:58:24;100968.50;;;31.07;56.09
35647;BME280;28680;45.642;13.756;2023-05-28T11:00:50;100975.00;;;31.50;50.66
35647;BME280;28680;45.642;13.756;2023-05-28T11:03:16;100966.34;;;31.31;53.43
35647;BME280;28680;45.642;13.756;2023-05-28T11:05:43;100960.16;;;31.36;51.86
35647;BME280;28680;45.642;13.756;2023-05-28T11:08:10;100959.69;;;31.66;49.83
35647;BME280;28680;45.642;13.756;2023-05-28T11:10:37;100956.47;;;31.69;51.11
35647;BME280;28680;45.642;13.756;2023-05-28T11:13:02;100952.28;;;31.83;49.55
35647;BME280;28680;45.642;13.756;2023-05-28T11:15:29;100956.13;;;31.88;51.04
35647;BME280;28680;45.642;13.756;2023-05-28T11:17:55;100956.63;;;32.49;46.10
35647;BME280;28680;45.642;13.756;2023-05-28T11:20:23;100941.78;;;32.62;45.95
35647;BME280;28680;45.642;13.756;2023-05-28T11:22:55;100947.09;;;32.89;45.49
35647;BME280;28680;45.642;13.756;2023-05-28T11:25:22;100950.56;;;33.37;43.67
35647;BME280;28680;45.642;13.756;2023-05-28T11:27:48;100953.31;;;33.48;42.88
35647;BME280;28680;45.642;13.756;2023-05-28T11:30:18;100949.03;;;32.51;46.01
35647;BME280;28680;45.642;13.756;2023-05-28T11:32:45;100941.81;;;31.97;50.29
35647;BME280;28680;45.642;13.756;2023-05-28T11:35:13;100943.78;;;31.47;47.50
35647;BME280;28680;45.642;13.756;2023-05-28T11:37:41;100946.66;;;31.19;54.96
35647;BME280;28680;45.642;13.756;2023-05-28T11:40:10;100949.13;;;30.98;59.23
35647;BME280;28680;45.642;13.756;2023-05-28T11:42:38;100957.97;;;31.11;51.63
35647;BME280;28680;45.642;13.756;2023-05-28T11:45:09;100960.06;;;30.86;57.21
35647;BME280;28680;45.642;13.756;2023-05-28T11:47:37;100954.84;;;30.63;72.52
35647;BME280;28680;45.642;13.756;2023-05-28T11:52:33;100967.31;;;28.44;100.00
35647;BME280;28680;45.642;13.756;2023-05-28T11:55:00;100963.59;;;27.73;100.00
35647;BME280;28680;45.642;13.756;2023-05-28T11:57:29;100979.97;;;27.22;100.00
35647;BME280;28680;45.642;13.756;2023-05-28T12:02:46;100982.91;;;25.43;100.00
35647;BME280;28680;45.642;13.756;2023-05-28T12:05:14;100994.78;;;25.09;100.00
35647;BME280;28680;45.642;13.756;2023-05-28T12:07:53;101000.75;;;25.24;100.00
35647;BME280;28680;45.642;13.756;2023-05-28T12:10:21;100998.50;;;25.01;100.00
35647;BME280;28680;45.642;13.756;2023-05-28T12:12:54;100988.78;;;25.07;100.00
35647;BME280;28680;45.642;13.756;2023-05-28T12:15:23;100972.59;;;25.92;100.00
35647;BME280;28680;45.642;13.756;2023-05-28T12:17:58;100978.06;;;26.36;100.00
35647;BME280;28680;45.642;13.756;2023-05-28T12:20:32;100968.94;;;26.37;100.00
35647;BME280;28680;45.642;13.756;2023-05-28T12:23:07;100979.56;;;26.00;100.00
35647;BME280;28680;45.642;13.756;2023-05-28T12:28:12;100979.78;;;26.30;100.00
35647;BME280;28680;45.642;13.756;2023-05-28T12:30:40;100987.13;;;26.16;100.00
35647;BME280;28680;45.642;13.756;2023-05-28T12:33:06;100978.69;;;26.38;100.00
35647;BME280;28680;45.642;13.756;2023-05-28T12:35:32;100980.53;;;26.88;100.00
35647;BME280;28680;45.642;13.756;2023-05-28T12:37:58;100983.50;;;27.60;100.00
35647;BME280;28680;45.642;13.756;2023-05-28T12:40:24;100991.97;;;27.94;100.00
35647;BME280;28680;45.642;13.756;2023-05-28T12:42:50;100993.03;;;27.93;100.00
35647;BME280;28680;45.642;13.756;2023-05-28T12:45:16;100995.72;;;28.47;100.00
35647;BME280;28680;45.642;13.756;2023-05-28T12:47:42;100996.06;;;28.50;100.00